Time;durP1;ratioP1;P1;durP2;ratioP2;P2;SDS_P1;SDS_P2;PMS_P1;PMS_P2;Temp;Humidity;BMP_temperature;BMP_pressure;BME280_temperature;BME280_humidity;BME280_pressure;Samples;Min_cycle;Max_cycle;Signal;HPM_P1;HPM_P2
2022/09/21 00:00:49;;;;;;;;;;;;;;;21.44;59.88;100168.94;7307874;19;129163;-37
2022/09/21 00:03:15;;;;;;;;;;;;;;;21.41;59.84;100177.88;7307953;19;129629;-38
2022/09/21 00:05:40;;;;;;;;;;;;;;;21.41;59.79;100174.44;7310111;19;129257;-38
2022/09/21 00:08:06;;;;;;;;;;;;;;;21.38;59.94;100174.69;7307605;19;129487;-38
2022/09/21 00:10:32;;;;;;;;;;;;;;;21.42;59.51;100179.53;7304673;19;129250;-38
2022/09/21 00:12:58;;;;;;;;;;;;;;;21.47;59.76;100177.38;7308484;19;129588;-38
2022/09/21 00:15:23;;;;;;;;;;;;;;;21.44;59.25;100176.78;7311685;19;129573;-37
2022/09/21 00:17:51;;;;;;;;;;;;;;;21.43;59.53;100175.97;7315853;19;129016;-38
2022/09/21 00:20:16;;;;;;;;;;;;;;;21.26;59.04;100167.81;7314350;19;129784;-38
2022/09/21 00:22:42;;;;;;;;;;;;;;;21.26;59.98;100175.66;7314975;19;130237;-39
2022/09/21 00:25:08;;;;;;;;;;;;;;;21.28;59.96;100177.22;7315866;19;129421;-38
2022/09/21 00:27:33;;;;;;;;;;;;;;;21.20;59.86;100153.47;7314419;19;130189;-38
2022/09/21 00:30:01;;;;;;;;;;;;;;;21.28;59.44;100177.22;7311703;19;129441;-37
2022/09/21 00:32:27;;;;;;;;;;;;;;;21.29;59.81;100178.88;7312102;19;130621;-38
2022/09/21 00:34:52;;;;;;;;;;;;;;;21.35;60.14;100183.63;7315815;19;129923;-38
2022/09/21 00:37:18;;;;;;;;;;;;;;;21.30;59.48;100174.47;7312303;19;130755;-38
2022/09/21 00:39:43;;;;;;;;;;;;;;;21.38;59.65;100175.53;7315286;19;129653;-38
2022/09/21 00:42:13;;;;;;;;;;;;;;;21.30;59.99;100158.78;7310123;19;129709;-38
2022/09/21 00:44:38;;;;;;;;;;;;;;;21.38;59.53;100188.59;7316763;19;129468;-38
2022/09/21 00:47:07;;;;;;;;;;;;;;;21.44;59.51;100182.88;7315169;19;129514;-37
2022/09/21 00:49:33;;;;;;;;;;;;;;;21.45;59.82;100174.03;7313119;19;130502;-37
2022/09/21 00:52:00;;;;;;;;;;;;;;;21.34;59.83;100165.41;7311134;19;129536;-38
2022/09/21 00:54:28;;;;;;;;;;;;;;;21.40;59.95;100178.81;7313966;19;129084;-38
2022/09/21 00:56:54;;;;;;;;;;;;;;;21.32;60.17;100160.31;7314015;19;129810;-38
2022/09/21 00:59:19;;;;;;;;;;;;;;;21.44;59.26;100179.41;7313013;19;129892;-38
2022/09/21 01:01:45;;;;;;;;;;;;;;;21.40;59.55;100176.19;7311888;19;129445;-37
2022/09/21 01:04:12;;;;;;;;;;;;;;;21.40;59.79;100185.84;7314471;19;130305;-38
2022/09/21 01:06:37;;;;;;;;;;;;;;;21.26;59.35;100163.44;7313011;19;131036;-38
2022/09/21 01:09:03;;;;;;;;;;;;;;;21.40;60.26;100186.66;7312350;19;129132;-38
2022/09/21 01:11:51;;;;;;;;;;;;;;;21.43;59.81;100189.06;7306690;19;146531;-38
2022/09/21 01:14:16;;;;;;;;;;;;;;;21.30;59.54;100166.63;7314376;19;129969;-38
2022/09/21 01:16:41;;;;;;;;;;;;;;;21.41;60.15;100188.34;7313261;19;130040;-38
2022/09/21 01:19:06;;;;;;;;;;;;;;;21.44;60.22;100188.09;7312368;19;129120;-38
2022/09/21 01:21:42;;;;;;;;;;;;;;;21.47;59.65;100189.66;7310294;19;129525;-38
2022/09/21 01:24:16;;;;;;;;;;;;;;;21.50;59.77;100186.78;7312709;19;129649;-39
2022/09/21 01:26:47;;;;;;;;;;;;;;;21.47;60.08;100185.22;7312377;19;129520;-38
2022/09/21 01:29:15;;;;;;;;;;;;;;;21.42;59.87;100184.75;7308615;19;129194;-38
2022/09/21 01:32:01;;;;;;;;;;;;;;;21.43;59.36;100185.59;7310084;19;129424;-37
2022/09/21 01:34:26;;;;;;;;;;;;;;;21.45;60.13;100189.75;7312617;19;129249;-38
2022/09/21 01:36:54;;;;;;;;;;;;;;;21.47;59.81;100187.84;7313396;19;130531;-38
2022/09/21 01:39:20;;;;;;;;;;;;;;;21.51;60.02;100194.50;7313324;19;130047;-38
2022/09/21 01:41:47;;;;;;;;;;;;;;;21.32;59.17;100181.22;7309271;19;129493;-37
2022/09/21 01:44:16;;;;;;;;;;;;;;;21.46;59.87;100204.50;7313127;19;129156;-38
2022/09/21 01:46:41;;;;;;;;;;;;;;;21.44;60.01;100202.94;7313557;19;130199;-38
2022/09/21 01:49:16;;;;;;;;;;;;;;;21.44;59.85;100203.78;7312868;19;129686;-38
2022/09/21 01:51:45;;;;;;;;;;;;;;;21.43;60.28;100207.38;7313175;19;128975;-38
2022/09/21 01:54:15;;;;;;;;;;;;;;;21.44;60.07;100203.78;7311338;19;128956;-38
2022/09/21 01:56:43;;;;;;;;;;;;;;;21.31;59.96;100205.72;7311625;19;130161;-38
2022/09/21 01:59:14;;;;;;;;;;;;;;;21.39;60.08;100213.78;7312456;19;130549;-38
2022/09/21 02:01:46;;;;;;;;;;;;;;;21.39;60.22;100216.41;7311418;19;129359;-37
2022/09/21 02:04:12;;;;;;;;;;;;;;;21.44;60.14;100213.41;7312941;19;129015;-38
2022/09/21 02:06:38;;;;;;;;;;;;;;;21.44;59.63;100209.03;7312427;19;129614;-38
2022/09/21 02:09:04;;;;;;;;;;;;;;;21.41;59.78;100204.03;7310606;19;130113;-37
2022/09/21 02:11:29;;;;;;;;;;;;;;;21.48;60.00;100210.44;7310020;19;129847;-38
2022/09/21 02:13:54;;;;;;;;;;;;;;;21.45;59.55;100209.88;7312306;19;129446;-38
2022/09/21 02:16:39;;;;;;;;;;;;;;;21.38;59.71;100196.44;7312444;19;129637;-38
2022/09/21 02:19:13;;;;;;;;;;;;;;;21.47;60.00;100214.00;7309572;19;129227;-38
2022/09/21 02:21:56;;;;;;;;;;;;;;;21.46;59.91;100207.13;7310416;19;128999;-38
2022/09/21 02:24:40;;;;;;;;;;;;;;;21.46;59.82;100217.59;7310787;19;130480;-37
2022/09/21 02:27:12;;;;;;;;;;;;;;;21.49;59.42;100222.56;7311483;19;129910;-38
2022/09/21 02:29:45;;;;;;;;;;;;;;;21.50;59.79;100218.97;7310746;19;130048;-38
2022/09/21 02:32:34;;;;;;;;;;;;;;;21.49;60.27;100217.31;7309369;19;129052;-37
2022/09/21 02:35:03;;;;;;;;;;;;;;;21.38;59.83;100208.69;7312168;19;129401;-38
2022/09/21 02:37:39;;;;;;;;;;;;;;;21.51;59.84;100219.81;7309876;19;131266;-38
2022/09/21 02:40:04;;;;;;;;;;;;;;;21.46;59.77;100209.72;7310945;19;131488;-37
2022/09/21 02:42:32;;;;;;;;;;;;;;;21.48;59.60;100215.69;7306942;19;129435;-37
2022/09/21 02:45:06;;;;;;;;;;;;;;;21.50;59.96;100218.16;7310713;19;128981;-38
2022/09/21 02:47:41;;;;;;;;;;;;;;;21.48;59.82;100214.84;7311639;19;130070;-38
2022/09/21 02:50:10;;;;;;;;;;;;;;;21.48;60.32;100220.06;7309140;19;130279;-38
2022/09/21 02:52:39;;;;;;;;;;;;;;;21.49;59.59;100222.56;7308163;19;128975;-38
2022/09/21 02:55:05;;;;;;;;;;;;;;;21.51;60.18;100223.28;7311144;19;132050;-38
2022/09/21 02:57:30;;;;;;;;;;;;;;;21.51;59.78;100223.28;7311202;19;130064;-38
2022/09/21 02:59:56;;;;;;;;;;;;;;;21.46;60.06;100222.81;7311747;19;129849;-38
2022/09/21 03:02:21;;;;;;;;;;;;;;;21.40;59.85;100214.63;7306537;19;129363;-38
2022/09/21 03:04:47;;;;;;;;;;;;;;;21.51;59.77;100231.13;7309964;19;129384;-38
2022/09/21 03:07:14;;;;;;;;;;;;;;;21.51;60.01;100235.50;7311349;19;129473;-38
2022/09/21 03:09:39;;;;;;;;;;;;;;;21.52;60.23;100230.16;7310369;19;129281;-37
2022/09/21 03:12:04;;;;;;;;;;;;;;;21.51;59.87;100230.28;7306234;19;128907;-38
2022/09/21 03:14:31;;;;;;;;;;;;;;;21.43;60.18;100220.44;7310195;19;129405;-37
2022/09/21 03:16:57;;;;;;;;;;;;;;;21.55;60.34;100242.19;7311382;19;130219;-38
2022/09/21 03:19:23;;;;;;;;;;;;;;;21.50;59.80;100244.34;7310375;19;131016;-37
2022/09/21 03:21:48;;;;;;;;;;;;;;;21.51;60.16;100245.97;7307121;19;129569;-38
2022/09/21 03:24:44;;;;;;;;;;;;;;;21.49;60.03;100243.50;7309158;19;131216;-38
2022/09/21 03:26:59;;;;;;;;;;;;;;;21.51;60.13;100246.81;7308020;19;130183;-38
2022/09/21 03:29:24;;;;;;;;;;;;;;;21.51;59.74;100238.13;7308885;19;129415;-37
2022/09/21 03:31:51;;;;;;;;;;;;;;;21.50;59.78;100244.34;7305477;19;129515;-37
2022/09/21 03:34:16;;;;;;;;;;;;;;;21.49;60.17;100246.09;7310569;19;129398;-38
2022/09/21 03:36:41;;;;;;;;;;;;;;;21.53;59.66;100242.31;7311250;19;129547;-37
2022/09/21 03:39:07;;;;;;;;;;;;;;;21.52;59.93;100243.25;7310762;19;130302;-38
2022/09/21 03:41:32;;;;;;;;;;;;;;;21.50;59.86;100247.75;7308082;19;129891;-38
2022/09/21 03:43:57;;;;;;;;;;;;;;;21.51;60.21;100245.97;7310161;19;129439;-37
2022/09/21 03:46:23;;;;;;;;;;;;;;;21.40;60.06;100231.13;7308077;19;130421;-38
2022/09/21 03:48:48;;;;;;;;;;;;;;;21.43;59.70;100230.91;7307776;19;129984;-37
2022/09/21 03:51:14;;;;;;;;;;;;;;;21.53;59.71;100244.91;7311751;19;129931;-37
2022/09/21 03:53:39;;;;;;;;;;;;;;;21.49;60.22;100248.72;7313313;19;129845;-38
2022/09/21 03:56:04;;;;;;;;;;;;;;;21.48;59.89;100248.84;7313523;19;129596;-38
2022/09/21 03:58:30;;;;;;;;;;;;;;;21.50;60.38;100252.19;7314489;19;129697;-38
2022/09/21 04:00:59;;;;;;;;;;;;;;;21.51;60.28;100253.81;7312381;19;129096;-38
2022/09/21 04:03:25;;;;;;;;;;;;;;;21.45;60.40;100236.81;7314364;19;129354;-38
2022/09/21 04:05:50;;;;;;;;;;;;;;;21.51;60.26;100252.06;7315989;19;129140;-38
2022/09/21 04:08:15;;;;;;;;;;;;;;;21.49;59.55;100251.34;7316530;19;129607;-37
2022/09/21 04:10:42;;;;;;;;;;;;;;;21.49;59.78;100251.34;7315372;19;129879;-37
2022/09/21 04:13:07;;;;;;;;;;;;;;;21.42;60.21;100242.31;7314161;19;129019;-38
2022/09/21 04:15:32;;;;;;;;;;;;;;;21.54;59.60;100254.41;7315016;19;129936;-38
2022/09/21 04:17:58;;;;;;;;;;;;;;;21.53;60.18;100255.38;7315747;19;129245;-38
2022/09/21 04:20:23;;;;;;;;;;;;;;;21.49;60.26;100264.41;7314825;19;130021;-38
2022/09/21 04:22:50;;;;;;;;;;;;;;;21.48;60.52;100257.53;7313952;19;129143;-37
2022/09/21 04:25:15;;;;;;;;;;;;;;;21.53;59.75;100260.63;7315065;19;129320;-38
2022/09/21 04:27:41;;;;;;;;;;;;;;;21.54;59.93;100269.28;7315407;19;129561;-37
2022/09/21 04:30:07;;;;;;;;;;;;;;;21.52;59.80;100268.56;7312014;19;129569;-38
2022/09/21 04:32:32;;;;;;;;;;;;;;;21.53;59.58;100271.09;7307297;19;130681;-38
2022/09/21 04:34:57;;;;;;;;;;;;;;;21.55;59.77;100263.91;7310995;19;129648;-38
2022/09/21 04:37:22;;;;;;;;;;;;;;;21.55;59.99;100269.16;7309621;19;129665;-38
2022/09/21 04:39:48;;;;;;;;;;;;;;;21.52;60.29;100264.16;7307463;19;129849;-38
2022/09/21 04:42:13;;;;;;;;;;;;;;;21.51;59.78;100270.38;7303373;19;130497;-38
2022/09/21 04:44:38;;;;;;;;;;;;;;;21.54;60.07;100267.50;7308117;19;129761;-38
2022/09/21 04:47:04;;;;;;;;;;;;;;;21.55;60.58;100271.75;7305266;19;131451;-38
2022/09/21 04:49:29;;;;;;;;;;;;;;;21.53;60.41;100276.31;7305333;19;131144;-37
2022/09/21 04:51:54;;;;;;;;;;;;;;;21.50;59.83;100278.34;7302562;19;129183;-38
2022/09/21 04:54:19;;;;;;;;;;;;;;;21.53;59.87;100272.84;7315580;19;129491;-37
2022/09/21 04:56:45;;;;;;;;;;;;;;;21.57;60.06;100282.94;7315202;19;129604;-38
2022/09/21 04:59:10;;;;;;;;;;;;;;;21.55;60.64;100289.28;7308059;19;130205;-38
2022/09/21 05:01:35;;;;;;;;;;;;;;;21.55;60.48;100279.63;7305818;19;130607;-38
2022/09/21 05:04:01;;;;;;;;;;;;;;;21.53;60.24;100292.00;7306201;19;131046;-38
2022/09/21 05:06:30;;;;;;;;;;;;;;;21.53;60.19;100286.78;7304673;19;130379;-38
2022/09/21 05:11:40;;;;;;;;;;;;;;;21.55;59.94;100299.75;7303195;19;130697;-38
2022/09/21 05:14:06;;;;;;;;;;;;;;;21.58;60.70;100297.72;7311605;19;130209;-38
2022/09/21 05:16:31;;;;;;;;;;;;;;;21.60;59.98;100303.63;7311768;19;130560;-37
2022/09/21 05:18:56;;;;;;;;;;;;;;;21.57;60.04;100303.03;7313465;19;130684;-38
2022/09/21 05:21:22;;;;;;;;;;;;;;;21.58;59.95;100309.94;7298154;19;131221;-38
2022/09/21 05:23:47;;;;;;;;;;;;;;;21.52;59.63;100308.66;7305922;19;131511;-38
2022/09/21 05:26:13;;;;;;;;;;;;;;;21.57;60.06;100318.75;7312979;19;129559;-38
2022/09/21 05:28:38;;;;;;;;;;;;;;;21.56;59.59;100317.09;7315688;19;129046;-38
2022/09/21 05:31:03;;;;;;;;;;;;;;;21.55;59.97;100321.47;7310350;19;129966;-38
2022/09/21 05:33:31;;;;;;;;;;;;;;;21.57;60.10;100329.19;7312206;19;129625;-38
2022/09/21 05:36:03;;;;;;;;;;;;;;;21.50;59.68;100310.53;7304944;19;132065;-38
2022/09/21 05:38:29;;;;;;;;;;;;;;;21.59;59.73;100320.28;7306427;19;131278;-38
2022/09/21 05:40:54;;;;;;;;;;;;;;;21.58;60.01;100321.25;7302694;19;129794;-38
2022/09/21 05:43:20;;;;;;;;;;;;;;;21.59;59.54;100328.16;7302390;19;130041;-38
2022/09/21 05:45:46;;;;;;;;;;;;;;;21.60;59.84;100329.78;7304817;19;130403;-38
2022/09/21 05:48:11;;;;;;;;;;;;;;;21.56;59.59;100335.41;7304708;19;130276;-37
2022/09/21 05:50:40;;;;;;;;;;;;;;;21.54;59.91;100335.53;7303892;19;130898;-38
2022/09/21 05:53:20;;;;;;;;;;;;;;;21.57;60.54;100339.66;7302410;19;130264;-37
2022/09/21 05:55:55;;;;;;;;;;;;;;;21.59;59.75;100337.78;7308928;19;129646;-37
2022/09/21 05:58:42;;;;;;;;;;;;;;;21.58;60.14;100331.72;7314740;19;128920;-38
2022/09/21 06:01:08;;;;;;;;;;;;;;;21.60;59.75;100337.66;7307470;19;129751;-38
2022/09/21 06:03:35;;;;;;;;;;;;;;;21.46;59.66;100327.47;7303070;19;130658;-38
2022/09/21 06:06:00;;;;;;;;;;;;;;;21.58;59.94;100338.75;7304463;19;130622;-38
2022/09/21 06:08:25;;;;;;;;;;;;;;;21.56;59.95;100348.50;7303835;19;132314;-38
2022/09/21 06:10:51;;;;;;;;;;;;;;;21.58;60.12;100341.34;7302741;19;130551;-38
2022/09/21 06:13:17;;;;;;;;;;;;;;;21.52;60.34;100342.66;7300998;19;131040;-38
2022/09/21 06:15:42;;;;;;;;;;;;;;;21.58;60.03;100342.19;7304895;19;129553;-38
2022/09/21 06:18:07;;;;;;;;;;;;;;;21.57;59.79;100345.75;7304328;19;129951;-38
2022/09/21 06:20:33;;;;;;;;;;;;;;;21.59;60.16;100349.06;7302833;19;129212;-38
2022/09/21 06:23:02;;;;;;;;;;;;;;;21.54;60.40;100350.38;7308869;19;129964;-38
2022/09/21 06:25:27;;;;;;;;;;;;;;;21.55;60.25;100342.41;7312445;19;130473;-38
2022/09/21 06:27:53;;;;;;;;;;;;;;;21.54;60.60;100343.38;7306509;19;130889;-38
2022/09/21 06:30:18;;;;;;;;;;;;;;;21.55;59.70;100347.66;7302203;19;130550;-38
2022/09/21 06:32:43;;;;;;;;;;;;;;;21.57;59.92;100350.13;7305328;19;130301;-38
2022/09/21 06:35:08;;;;;;;;;;;;;;;21.58;60.28;100352.66;7304213;19;130146;-38
2022/09/21 06:37:34;;;;;;;;;;;;;;;21.51;59.91;100350.63;7305266;19;130761;-38
2022/09/21 06:39:59;;;;;;;;;;;;;;;21.56;60.05;100354.56;7303356;19;129348;-38
2022/09/21 06:42:25;;;;;;;;;;;;;;;21.57;60.23;100350.13;7303273;19;130119;-38
2022/09/21 06:44:50;;;;;;;;;;;;;;;21.43;60.46;100337.31;7313571;19;129149;-38
2022/09/21 06:47:16;;;;;;;;;;;;;;;21.55;59.99;100362.53;7304334;19;129589;-38
2022/09/21 06:49:41;;;;;;;;;;;;;;;21.54;60.68;100361.69;7300648;19;129623;-38
2022/09/21 06:52:06;;;;;;;;;;;;;;;21.55;60.35;100352.06;7298105;19;130783;-38
2022/09/21 06:54:31;;;;;;;;;;;;;;;21.52;60.09;100358.34;7302612;19;130582;-37
2022/09/21 06:56:57;;;;;;;;;;;;;;;21.54;60.29;100366.09;7310842;19;130075;-38
2022/09/21 06:59:22;;;;;;;;;;;;;;;21.55;60.28;100358.09;7301598;19;129436;-38
2022/09/21 07:01:47;;;;;;;;;;;;;;;21.46;60.32;100347.53;7299111;19;131236;-38
2022/09/21 07:04:12;;;;;;;;;;;;;;;21.57;60.01;100366.69;7304400;19;131928;-38
2022/09/21 07:06:38;;;;;;;;;;;;;;;21.58;60.64;100365.75;7307266;19;129163;-38
2022/09/21 07:09:03;;;;;;;;;;;;;;;21.62;60.22;100363.69;7311925;19;129233;-37
2022/09/21 07:11:28;;;;;;;;;;;;;;;21.50;60.12;100349.78;7308127;19;130200;-37
2022/09/21 07:13:55;;;;;;;;;;;;;;;21.57;59.62;100371.91;7311215;19;130198;-38
2022/09/21 07:16:20;;;;;;;;;;;;;;;21.58;59.66;100368.38;7310243;19;128901;-38
2022/09/21 07:18:46;;;;;;;;;;;;;;;21.57;60.52;100371.91;7300029;19;130187;-38
2022/09/21 07:21:11;;;;;;;;;;;;;;;21.56;59.97;100367.66;7296048;19;131456;-38
2022/09/21 07:23:36;;;;;;;;;;;;;;;21.58;60.83;100378.81;7299098;19;130871;-38
2022/09/21 07:26:03;;;;;;;;;;;;;;;21.56;60.21;100378.09;7308399;19;130547;-37
2022/09/21 07:28:29;;;;;;;;;;;;;;;21.55;59.96;100388.69;7314928;19;129577;-38
2022/09/21 07:30:55;;;;;;;;;;;;;;;21.48;59.99;100366.56;7312196;19;130154;-37
2022/09/21 07:33:21;;;;;;;;;;;;;;;21.55;60.52;100383.47;7314710;19;130847;-39
2022/09/21 07:35:50;;;;;;;;;;;;;;;21.56;60.30;100379.88;7302534;19;130225;-38
2022/09/21 07:38:15;;;;;;;;;;;;;;;21.61;60.31;100389.03;7308058;19;130224;-40
2022/09/21 07:40:40;;;;;;;;;;;;;;;21.61;59.93;100394.28;7306204;19;129668;-37
2022/09/21 07:43:05;;;;;;;;;;;;;;;21.62;60.05;100393.31;7306512;19;129589;-38
2022/09/21 07:45:31;;;;;;;;;;;;;;;21.60;60.12;100394.41;7309405;19;130314;-38
2022/09/21 07:48:02;;;;;;;;;;;;;;;21.57;60.40;100392.84;7302451;19;130834;-38
2022/09/21 07:50:28;;;;;;;;;;;;;;;21.57;59.83;100392.84;7304087;19;130954;-38
2022/09/21 07:52:53;;;;;;;;;;;;;;;21.57;60.25;100392.84;7309430;19;131156;-37
2022/09/21 07:55:18;;;;;;;;;;;;;;;21.57;60.45;100399.84;7315905;19;129103;-38
2022/09/21 08:00:31;;;;;;;;;;;;;;;21.57;60.23;100394.63;7312951;19;129161;-38
2022/09/21 08:02:56;;;;;;;;;;;;;;;21.60;60.62;100391.78;7309788;19;131750;-37
2022/09/21 08:05:21;;;;;;;;;;;;;;;21.61;60.51;100394.28;7309728;19;129294;-42
2022/09/21 08:07:47;;;;;;;;;;;;;;;21.61;59.94;100393.44;7306999;19;131554;-38
2022/09/21 08:10:12;;;;;;;;;;;;;;;21.59;60.20;100390.09;7305151;19;130660;-38
2022/09/21 08:12:37;;;;;;;;;;;;;;;21.48;60.11;100377.88;7309692;19;129325;-38
2022/09/21 08:15:03;;;;;;;;;;;;;;;21.61;60.29;100394.28;7314872;19;129164;-38
2022/09/21 08:17:28;;;;;;;;;;;;;;;21.62;60.29;100395.94;7316315;19;129097;-38
2022/09/21 08:19:54;;;;;;;;;;;;;;;21.61;59.90;100390.81;7307650;19;130562;-38
2022/09/21 08:22:24;;;;;;;;;;;;;;;21.49;60.65;100374.31;7301264;19;130461;-38
2022/09/21 08:24:51;;;;;;;;;;;;;;;21.56;60.72;100396.44;7307093;19;130214;-38
2022/09/21 08:27:18;;;;;;;;;;;;;;;21.57;60.70;100398.06;7313426;19;129298;-38
2022/09/21 08:29:44;;;;;;;;;;;;;;;21.60;60.70;100397.84;7301795;19;131072;-38
2022/09/21 08:32:10;;;;;;;;;;;;;;;21.49;60.66;100379.53;7302892;19;129893;-37
2022/09/21 08:34:35;;;;;;;;;;;;;;;21.56;60.19;100401.66;7313396;19;129121;-37
2022/09/21 08:37:00;;;;;;;;;;;;;;;21.57;59.93;100399.84;7313013;19;129866;-38
2022/09/21 08:39:26;;;;;;;;;;;;;;;21.58;60.88;100393.69;7309176;19;129405;-38
2022/09/21 08:41:58;;;;;;;;;;;;;;;21.49;59.96;100384.75;7311240;19;130779;-38
2022/09/21 08:44:46;;;;;;;;;;;;;;;21.60;60.52;100395.22;7316339;19;129342;-38
2022/09/21 08:47:11;;;;;;;;;;;;;;;21.51;60.39;100384.63;7305165;19;129920;-38
2022/09/21 08:49:38;;;;;;;;;;;;;;;21.59;60.19;100397.94;7303017;19;130493;-38
2022/09/21 08:52:05;;;;;;;;;;;;;;;21.54;60.05;100392.25;7302412;19;131808;-38
2022/09/21 08:54:41;;;;;;;;;;;;;;;21.56;60.89;100401.66;7307631;19;129294;-38
2022/09/21 08:57:13;;;;;;;;;;;;;;;21.51;60.02;100401.19;7315359;19;129448;-38
2022/09/21 08:59:48;;;;;;;;;;;;;;;21.53;59.96;100396.66;7302849;19;131505;-38
2022/09/21 09:02:13;;;;;;;;;;;;;;;21.55;60.49;100404.41;7301498;19;130318;-38
2022/09/21 09:04:57;;;;;;;;;;;;;;;21.60;60.28;100408.28;7304457;19;130516;-38
2022/09/21 09:07:25;;;;;;;;;;;;;;;21.57;60.14;100403.31;7302636;19;130435;-38
2022/09/21 09:10:09;;;;;;;;;;;;;;;21.53;59.96;100401.91;7305012;19;131587;-38
2022/09/21 09:12:53;;;;;;;;;;;;;;;21.53;60.74;100407.13;7302269;19;130748;-38
2022/09/21 09:15:30;;;;;;;;;;;;;;;21.57;60.37;100405.94;7304573;19;131487;-36
2022/09/21 09:18:08;;;;;;;;;;;;;;;21.56;60.11;100406.03;7313894;19;128970;-38
2022/09/21 09:20:45;;;;;;;;;;;;;;;21.57;60.75;100403.31;7313239;19;131994;-38
2022/09/21 09:23:14;;;;;;;;;;;;;;;21.59;59.92;100401.41;7313371;19;130203;-38
2022/09/21 09:25:41;;;;;;;;;;;;;;;21.57;60.11;100398.06;7313527;19;129660;-38
2022/09/21 09:28:16;;;;;;;;;;;;;;;21.57;60.45;100390.22;7306260;19;129987;-38
2022/09/21 09:30:42;;;;;;;;;;;;;;;21.53;60.16;100396.66;7306638;19;130553;-37
2022/09/21 09:33:18;;;;;;;;;;;;;;;21.56;60.50;100391.19;7313426;19;130227;-38
2022/09/21 09:35:48;;;;;;;;;;;;;;;21.57;60.87;100390.22;7312770;19;130871;-37
2022/09/21 09:38:18;;;;;;;;;;;;;;;21.59;60.63;100396.19;7313202;19;129500;-37
2022/09/21 09:41:07;;;;;;;;;;;;;;;21.56;60.30;100390.34;7313293;19;129676;-38
2022/09/21 09:43:35;;;;;;;;;;;;;;;21.54;60.38;100395.69;7312179;19;129789;-37
2022/09/21 09:46:00;;;;;;;;;;;;;;;21.59;60.71;100390.09;7314549;19;129130;-38
2022/09/21 09:48:25;;;;;;;;;;;;;;;21.52;60.73;100376.66;7312808;19;129453;-38
2022/09/21 09:50:51;;;;;;;;;;;;;;;21.61;60.25;100388.22;7312597;19;130304;-38
2022/09/21 09:53:19;;;;;;;;;;;;;;;21.57;60.19;100392.84;7313292;19;129586;-38
2022/09/21 09:55:46;;;;;;;;;;;;;;;21.46;60.18;100371.94;7314730;19;128995;-37
2022/09/21 09:58:19;;;;;;;;;;;;;;;21.59;60.84;100396.19;7313243;19;129502;-37
2022/09/21 10:00:46;;;;;;;;;;;;;;;21.60;60.27;100391.78;7307887;19;130870;-38
2022/09/21 10:03:20;;;;;;;;;;;;;;;21.61;60.30;100389.03;7311066;19;130242;-38
2022/09/21 10:05:45;;;;;;;;;;;;;;;21.62;60.26;100385.47;7307476;19;129694;-38
2022/09/21 10:08:27;;;;;;;;;;;;;;;21.59;60.26;100385.72;7312160;19;128830;-37
2022/09/21 10:10:53;;;;;;;;;;;;;;;21.61;60.86;100389.03;7309551;19;130362;-37
2022/09/21 10:13:39;;;;;;;;;;;;;;;21.58;60.06;100384.06;7306621;19;129918;-37
2022/09/21 10:16:17;;;;;;;;;;;;;;;21.60;60.54;100387.38;7305618;19;130923;-38
2022/09/21 10:18:42;;;;;;;;;;;;;;;21.60;60.38;100387.38;7310649;19;129549;-37
2022/09/21 10:21:14;;;;;;;;;;;;;;;21.63;60.40;100381.91;7304760;19;130120;-38
2022/09/21 10:23:45;;;;;;;;;;;;;;;21.60;60.51;100382.13;7310961;19;129442;-38
2022/09/21 10:26:11;;;;;;;;;;;;;;;21.58;60.46;100389.28;7310577;19;128898;-38
2022/09/21 10:28:54;;;;;;;;;;;;;;;21.61;60.34;100380.34;7307463;19;129985;-38
2022/09/21 10:31:23;;;;;;;;;;;;;;;21.62;60.17;100382.84;7305371;19;130846;-37
2022/09/21 10:34:04;;;;;;;;;;;;;;;21.61;59.89;100375.97;7311637;19;130853;-36
2022/09/21 10:36:33;;;;;;;;;;;;;;;21.57;60.26;100377.16;7311501;19;129757;-38
2022/09/21 10:39:11;;;;;;;;;;;;;;;21.60;60.84;100376.91;7306398;19;130632;-38
2022/09/21 10:41:36;;;;;;;;;;;;;;;21.57;60.14;100382.38;7307786;19;130878;-36
2022/09/21 10:44:02;;;;;;;;;;;;;;;21.60;60.60;100382.13;7311581;19;129538;-36
2022/09/21 10:46:34;;;;;;;;;;;;;;;21.57;60.40;100377.16;7310577;19;129612;-38
2022/09/21 10:49:01;;;;;;;;;;;;;;;21.58;60.95;100381.44;7311623;19;129748;-37
2022/09/21 10:51:28;;;;;;;;;;;;;;;21.57;60.09;100373.69;7305053;19;130334;-38
2022/09/21 10:53:53;;;;;;;;;;;;;;;21.48;60.84;100362.19;7311995;19;129783;-37
2022/09/21 10:56:19;;;;;;;;;;;;;;;21.64;60.18;100373.09;7313237;19;129746;-38
2022/09/21 10:59:04;;;;;;;;;;;;;;;21.63;60.15;100375.84;7303322;19;129290;-38
2022/09/21 11:01:30;;;;;;;;;;;;;;;21.65;60.36;100364.28;7308289;19;130265;-38
2022/09/21 11:04:06;;;;;;;;;;;;;;;21.59;60.43;100356.09;7310583;19;129459;-37
2022/09/21 11:06:31;;;;;;;;;;;;;;;21.61;59.92;100373.34;7306799;19;128949;-38
2022/09/21 11:09:19;;;;;;;;;;;;;;;21.61;60.59;100372.50;7307629;19;130141;-38
2022/09/21 11:12:05;;;;;;;;;;;;;;;21.60;60.68;100368.25;7302614;19;129160;-37
2022/09/21 11:14:53;;;;;;;;;;;;;;;21.60;60.24;100371.66;7304999;19;129322;-37
2022/09/21 11:17:24;;;;;;;;;;;;;;;21.62;60.84;100369.75;7310699;19;129331;-38
2022/09/21 11:19:53;;;;;;;;;;;;;;;21.61;60.68;100362.03;7307055;19;129010;-38
2022/09/21 11:22:30;;;;;;;;;;;;;;;21.59;60.16;100356.94;7304503;19;129840;-37
2022/09/21 11:24:55;;;;;;;;;;;;;;;21.61;60.14;100356.81;7307776;19;129906;-39
2022/09/21 11:27:34;;;;;;;;;;;;;;;21.58;60.19;100355.28;7310895;19;129035;-37
2022/09/21 11:30:02;;;;;;;;;;;;;;;21.59;60.58;100362.16;7310136;19;128863;-37
2022/09/21 11:32:46;;;;;;;;;;;;;;;21.56;60.63;100359.78;7307957;19;129040;-37
2022/09/21 11:35:14;;;;;;;;;;;;;;;21.59;60.79;100359.53;7306122;19;130239;-37
2022/09/21 11:37:39;;;;;;;;;;;;;;;21.45;60.90;100338.84;7312269;19;129175;-37
2022/09/21 11:40:27;;;;;;;;;;;;;;;21.60;60.76;100358.59;7307965;19;130190;-37
2022/09/21 11:43:02;;;;;;;;;;;;;;;21.59;60.85;100351.69;7308139;19;130223;-37
2022/09/21 11:45:46;;;;;;;;;;;;;;;21.58;60.31;100352.66;7310308;19;129208;-37
2022/09/21 11:48:14;;;;;;;;;;;;;;;21.60;60.31;100350.72;7311107;19;128905;-37
2022/09/21 11:50:44;;;;;;;;;;;;;;;21.61;60.91;100352.41;7309562;19;129232;-37
2022/09/21 11:53:10;;;;;;;;;;;;;;;21.62;60.43;100348.81;7309455;19;129880;-38
2022/09/21 11:55:54;;;;;;;;;;;;;;;21.62;60.24;100343.59;7312532;19;130566;-37
2022/09/21 11:58:22;;;;;;;;;;;;;;;21.60;60.28;100345.50;7310332;19;129940;-37
2022/09/21 12:00:49;;;;;;;;;;;;;;;21.64;60.33;100352.16;7308392;19;129415;-38
2022/09/21 12:03:14;;;;;;;;;;;;;;;21.64;60.33;100344.31;7307919;19;131207;-37
2022/09/21 12:05:47;;;;;;;;;;;;;;;21.63;60.88;100345.28;7311157;19;130370;-37
2022/09/21 12:08:31;;;;;;;;;;;;;;;21.58;59.84;100344.81;7308645;19;129159;-37
2022/09/21 12:11:16;;;;;;;;;;;;;;;21.59;60.94;100340.38;7309655;19;129541;-37
2022/09/21 12:13:51;;;;;;;;;;;;;;;21.62;60.84;100332.28;7312951;19;130753;-37
2022/09/21 12:16:16;;;;;;;;;;;;;;;21.65;60.28;100327.66;7317691;19;129238;-38
2022/09/21 12:18:53;;;;;;;;;;;;;;;21.66;60.18;100329.31;7317274;19;130238;-37
2022/09/21 12:21:20;;;;;;;;;;;;;;;21.63;60.11;100321.72;7314245;19;129469;-38
2022/09/21 12:23:52;;;;;;;;;;;;;;;21.63;60.60;100324.34;7316941;19;129591;-37
2022/09/21 12:26:19;;;;;;;;;;;;;;;21.63;60.39;100324.34;7317167;19;129627;-37
2022/09/21 12:28:55;;;;;;;;;;;;;;;21.63;60.70;100326.97;7317690;19;128917;-37
2022/09/21 12:31:25;;;;;;;;;;;;;;;21.60;60.04;100324.56;7311855;19;129849;-37
2022/09/21 12:33:55;;;;;;;;;;;;;;;21.59;60.32;100317.69;7317152;19;129505;-37
2022/09/21 12:36:24;;;;;;;;;;;;;;;21.61;60.75;100321.00;7316635;19;129742;-37
2022/09/21 12:39:00;;;;;;;;;;;;;;;21.58;60.92;100320.41;7315920;19;129573;-37
2022/09/21 12:41:45;;;;;;;;;;;;;;;21.61;60.50;100320.16;7315514;19;129258;-37